NEODyS-2

Near Earth Objects - Dynamic Site
NEODyS ∴ Observatories ∴ Site 691 ∴ Obs & residuals
Contact »
691  ▹ 
OBSERVATIONS AND RESIDUALS

691-Steward Observatory, Kitt Peak-Spacewatch

Detections | Residuals | Detections & Residuals

[1-200] [201-400] [401-600] [601-800] [801-1000] [1001-1200] [1201-1400] [1401-1600] [1601-1800] [1801-2000] [2001-2200] [2201-2400] [2401-2600] [2601-2800] [2801-3000] [3001-3200] [3201-3400] [3401-3600] [3601-3800] [3801-4000] [4001-4200] [4201-4400] [4401-4600] [4601-4800] [4801-5000] [5001-5200] [5201-5400] [5401-5600] [5601-5800] [5801-6000] [6001-6200] [6201-6400] [6401-6600] [6601-6800] [6801-7000] [7001-7200] [7201-7400] [7401-7600] [7601-7800] [7801-8000] [8001-8200] [8201-8400] [8401-8600] [8601-8800] [8801-9000] [9001-9200] [9201-9400] [9401-9600] [9601-9800] [9801-10000] [10001-10200] [10201-10400] [10401-10600] [10601-10800] [10801-11000] [11001-11200] [11201-11400] [11401-11600] [11601-11800] [11801-12000] [12001-12200] [12201-12400] [12401-12600] [12601-12800] [12801-13000] [13001-13200] [13201-13400] [13401-13600] [13601-13800] [13801-14000] [14001-14200] [14201-14400] [14401-14600] [14601-14800] [14801-15000] [15001-15200] [15201-15400] [15401-15600] [15601-15800] [15801-16000] [16001-16200] [16201-16400] [16401-16600] [16601-16800] [16801-17000] [17001-17200] [17201-17400] [17401-17600] [17601-17800] [17801-18000] [18001-18200] [18201-18400] [18401-18600] [18601-18800] [18801-19000] [19001-19200] [19201-19400] [19401-19600] [19601-19800] [19801-20000] [20001-20200] [20201-20400] [20401-20600] [20601-20800] [20801-21000] [21001-21200] [21201-21400] [21401-21600] [21601-21800] [21801-22000] [22001-22200] [22201-22400] [22401-22600] [22601-22800] [22801-23000] [23001-23200] [23201-23400] [23401-23600] [23601-23800] [23801-24000] [24001-24200] [24201-24400] [24401-24600] [24601-24800] [24801-25000] [25001-25200] [25201-25400] [25401-25600] [25601-25800] [25801-26000] [26001-26200] [26201-26400] [26401-26600] [26601-26800] [26801-27000] [27001-27200] [27201-27400] [27401-27600] [27601-27800] [27801-28000] [28001-28200] [28201-28400] [28401-28600] [28601-28800] [28801-29000] [29001-29200] [29201-29400] [29401-29600] [29601-29800] [29801-30000] [30001-30200] [30201-30400] [30401-30600] [30601-30800] [30801-31000] [31001-31200] [31201-31400] [31401-31600] [31601-31800] [31801-32000] [32001-32200] [32201-32400] [32401-32600] [32601-32800] [32801-33000] [33001-33200] [33201-33400] [33401-33600] [33601-33800] [33801-34000] [34001-34200] [34201-34400] [34401-34600] [34601-34800] [34801-35000] [35001-35200] [35201-35400] [35401-35600] [35601-35800] [35801-36000] [36001-36200] [36201-36400] [36401-36600] [36601-36800] [36801-37000] [37001-37200] [37201-37400] [37401-37600] [37601-37800] [37801-38000] [38001-38200] [38201-38400] [38401-38600] [38601-38800] [38801-39000] [39001-39200] [39201-39400] [39401-39600] [39601-39800] [39801-40000] [40001-40200] [40201-40400] [40401-40600] [40601-40800] [40801-41000] [41001-41200] [41201-41400] [41401-41600] [41601-41800] [41801-42000] [42001-42200] [42201-42400] [42401-42600] [42601-42800] [42801-43000] [43001-43200] [43201-43400] [43401-43600] [43601-43800] [43801-44000] [44001-44200] [44201-44400] [44401-44600] [44601-44800] [44801-45000] [45001-45200] [45201-45400] [45401-45600] [45601-45800] [45801-46000] [46001-46200] [46201-46400] [46401-46600] [46601-46800] [46801-47000] [47001-47200] [47201-47400] [47401-47600] [47601-47800] [47801-48000] [48001-48200] [48201-48400] [48401-48600] [48601-48800] [48801-49000] [49001-49200] [49201-49400] [49401-49600] [49601-49800] [49801-50000] [50001-50200] [50201-50388]

Designation T Tech N Date Right Ascension Declination Apparent Magnitude Star Catalog Site code χ Used A Used M
yr-mo-day precision hr:min:sec precision rms F bias residual deg min sec precision rms F bias residual mag/col rms residual
2000NF5 O c 1999-01-17.45043 1.000E-05 08:36:04.310 1.500E-01 0.600 F 0.156 -0.065 +17° 52' 49.70" 1.000E-01 0.600 F -0.134 -0.306 20.5 V 0.70 -0.10 i 691 0.52 Yes Yes
2000NF5 O c 1999-01-17.47289 1.000E-05 08:36:02.840 1.500E-01 0.600 F 0.156 -0.339 +17° 52' 55.50" 1.000E-01 0.600 F -0.134 0.758 20.1 V 0.70 -0.50 i 691 1.38 Yes Yes
2000NF5 O c 1999-01-17.49530 1.000E-05 08:36:01.430 1.500E-01 0.600 F 0.354 -0.045 +17° 52' 58.80" 1.000E-01 0.600 F -0.205 -0.583 20.4 V 0.70 -0.20 i 691 0.97 Yes Yes
1999BL33 O c 1999-01-18.26807 1.000E-05 08:57:24.590 1.500E-01 0.600 F 0.076 -1.007 +17° 05' 17.00" 1.000E-01 0.600 F 0.058 0.028 19.2 V 0.70 -1.13 i 691 1.79 Yes Yes
1999BL33 O c 1999-01-18.27224 1.000E-05 08:57:25.140 1.500E-01 0.600 F 0.076 0.388 +17° 05' 25.40" 1.000E-01 0.600 F 0.058 -0.245 20.3 V 0.70 -0.03 i 691 0.82 Yes Yes
1999BL33 O c 1999-01-18.27612 1.000E-05 08:57:25.540 1.500E-01 0.600 F 0.076 0.091 +17° 05' 33.20" 1.000E-01 0.600 F 0.058 -0.511 20.4 V 0.70 0.07 i 691 0.92 Yes Yes
1998XM2 O c 1999-01-19.17139 1.000E-05 02:14:39.960 1.500E-01 0.600 F -0.022 -0.137 +09° 50' 12.90" 1.000E-01 0.600 F 0.405 -0.552 20.2 V 0.70 0.25 i 691 0.95 Yes Yes
1998XM2 O c 1999-01-19.17521 1.000E-05 02:14:40.540 1.500E-01 0.600 F -0.022 0.262 +09° 50' 11.30" 1.000E-01 0.600 F 0.405 -0.781 19.7 V 0.70 -0.25 i 691 1.38 Yes Yes
1998XM2 O c 1999-01-19.17948 1.000E-05 02:14:41.160 1.500E-01 0.600 F -0.022 0.287 +09° 50' 10.20" 1.000E-01 0.600 F 0.405 -0.349 20.0 V 0.70 0.05 i 691 0.76 Yes Yes
1999BL33 O c 1999-01-19.26934 1.000E-05 08:59:23.140 1.500E-01 0.600 F 0.097 0.164 +17° 39' 40.80" 1.000E-01 0.600 F 0.036 0.136 20.8 V 0.70 0.49 i 691 0.37 Yes Yes
1999BL33 O c 1999-01-19.27337 1.000E-05 08:59:23.610 1.500E-01 0.600 F 0.097 0.668 +17° 39' 48.10" 1.000E-01 0.600 F 0.036 -1.001 20.1 V 0.70 -0.21 i 691 2.11 Yes Yes
1999BL33 O c 1999-01-19.27726 1.000E-05 08:59:24.010 1.500E-01 0.600 F 0.097 0.396 +17° 39' 57.60" 1.000E-01 0.600 F 0.036 0.358 20.6 V 0.70 0.29 i 691 0.93 Yes Yes
1999AJ39 O C 1999-01-19.37872 1.000E-05 08:09:23.860 1.500E-01 0.600 F 0.147 -0.164 +19° 44' 50.40" 1.000E-01 0.600 F 0.237 -0.982 21.7 V 0.70 0.89 a 691 1.67 Yes Yes
1999AJ39 O C 1999-01-19.40248 1.000E-05 08:09:19.510 1.500E-01 0.600 F 0.147 -0.449 +19° 44' 41.70" 1.000E-01 0.600 F 0.237 -0.796 21.8 V 0.70 0.99 a 691 1.53 Yes Yes
1999AJ39 O C 1999-01-19.42496 1.000E-05 08:09:15.390 1.500E-01 0.600 F 0.147 -0.932 +19° 44' 33.10" 1.000E-01 0.600 F 0.237 -0.890 21.5 V 0.70 0.70 a 691 2.16 Yes Yes
1998XM2 O c 1999-01-22.12468 1.000E-05 02:21:50.630 1.500E-01 0.600 F -0.191 -0.037 +09° 34' 04.80" 1.000E-01 0.600 F 0.550 -0.906 20.4 V 0.70 0.36 i 691 1.51 Yes Yes
1998XM2 O c 1999-01-22.13040 1.000E-05 02:21:51.400 1.500E-01 0.600 F -0.191 -0.657 +09° 34' 03.50" 1.000E-01 0.600 F 0.550 -0.467 20.6 V 0.70 0.56 i 691 1.35 Yes Yes
1998XM2 O c 1999-01-22.13630 1.000E-05 02:21:52.280 1.500E-01 0.600 F -0.191 -0.030 +09° 34' 01.40" 1.000E-01 0.600 F 0.550 -0.773 20.6 V 0.70 0.56 i 691 1.29 Yes Yes
2000NF5 O c 1999-01-22.34072 1.000E-05 08:30:48.090 1.500E-01 0.600 F 0.671 -0.711 +18° 10' 30.80" 1.000E-01 0.600 F -0.170 0.190 20.5 V 0.70 0.06 i 691 1.23 Yes Yes
2000NF5 O c 1999-01-22.36284 1.000E-05 08:30:46.620 1.500E-01 0.600 F 0.671 -0.485 +18° 10' 35.30" 1.000E-01 0.600 F -0.170 -0.097 20.3 V 0.70 -0.14 i 691 0.82 Yes Yes
2000NF5 O c 1999-01-22.38497 1.000E-05 08:30:45.160 1.500E-01 0.600 F 0.671 -0.120 +18° 10' 40.30" 1.000E-01 0.600 F -0.170 0.134 20.3 V 0.70 -0.13 i 691 0.30 Yes Yes
1999BL33 O c 1999-01-23.37108 1.000E-05 09:07:21.010 1.500E-01 0.600 F 0.031 -0.323 +20° 01' 51.60" 1.000E-01 0.600 F -0.151 0.033 20.6 V 0.70 0.38 i 691 0.61 Yes Yes
1999BL33 O c 1999-01-23.37687 1.000E-05 09:07:21.610 1.500E-01 0.600 F 0.031 -0.317 +20° 02' 03.00" 1.000E-01 0.600 F -0.151 -0.559 20.7 V 0.70 0.48 i 691 1.21 Yes Yes
1999BL33 O c 1999-01-23.38263 1.000E-05 09:07:22.230 1.500E-01 0.600 F 0.031 0.010 +20° 02' 16.00" 1.000E-01 0.600 F -0.151 0.523 20.6 V 0.70 0.38 i 691 0.98 Yes Yes
1999BL33 O C 1999-02-07.19273 1.000E-05 09:34:13.630 1.500E-01 0.600 F 0.293 -0.466 +27° 50' 26.20" 1.000E-01 0.600 F 0.144 0.285 20.3 V 0.70 -0.14 i 691 1.11 Yes Yes
1999BL33 O C 1999-02-07.19682 1.000E-05 09:34:14.050 1.500E-01 0.600 F 0.293 0.102 +27° 50' 32.00" 1.000E-01 0.600 F 0.144 -0.662 20.2 V 0.70 -0.24 i 691 1.37 Yes Yes
1999BL33 O C 1999-02-07.20110 1.000E-05 09:34:14.470 1.500E-01 0.600 F 0.293 0.451 +27° 50' 40.00" 1.000E-01 0.600 F 0.144 0.285 19.8 V 0.70 -0.64 i 691 1.09 Yes Yes
1999CQ2 O C 1999-02-07.27926 1.000E-05 09:56:20.340 1.500E-01 0.671 F -0.055 0.082 +12° 48' 53.30" 1.000E-01 0.671 F -0.146 0.644 18.9 V 0.70 0.04 i 691 1.09 Yes Yes
1999CQ2 O C 1999-02-07.30074 1.000E-05 09:56:33.720 1.500E-01 0.671 F -0.055 -0.224 +12° 40' 58.50" 1.000E-01 0.671 F -0.146 0.739 18.9 V 0.70 0.03 i 691 1.30 Yes Yes
1999CQ2 O C 1999-02-07.32233 1.000E-05 09:56:46.850 1.500E-01 0.671 F -0.055 -0.516 +12° 33' 02.10" 1.000E-01 0.671 F -0.146 -1.522 18.9 V 0.70 0.01 i 691 2.66 Yes Yes
1999CQ2 O C 1999-02-07.34306 1.000E-05 09:56:59.350 1.500E-01 0.671 F -0.055 0.914 +12° 25' 30.40" 1.000E-01 0.671 F -0.146 -0.941 18.9 V 0.70 0.00 i 691 2.18 Yes Yes
1999CQ2 O C 1999-02-07.41557 1.000E-05 09:57:41.990 1.500E-01 0.671 F 0.020 -0.215 +11° 59' 33.10" 1.000E-01 0.671 F -0.088 0.592 19.2 V 0.70 0.25 i 691 1.18 Yes Yes
1999CQ2 O C 1999-02-08.35294 1.000E-05 10:07:27.460 1.500E-01 0.600 F 0.083 -0.636 +07° 33' 46.50" 1.000E-01 0.600 F -0.119 0.954 19.9 V 0.70 0.35 i 691 2.26 Yes Yes
2000NF5 O C 1999-02-09.16659 1.000E-05 08:11:28.760 1.500E-01 0.600 F 0.044 0.751 +19° 11' 22.50" 1.000E-01 0.600 F -0.129 -0.783 20.8 V 0.70 0.07 i 691 1.81 Yes Yes
2000NF5 O C 1999-02-09.19253 1.000E-05 08:11:27.070 1.500E-01 0.600 F 0.044 -0.201 +19° 11' 27.50" 1.000E-01 0.600 F -0.129 -0.616 21.1 V 0.70 0.37 i 691 1.08 Yes Yes
2000NF5 O C 1999-02-09.21526 1.000E-05 08:11:25.660 1.500E-01 0.600 F 0.044 -0.003 +19° 11' 32.00" 1.000E-01 0.600 F -0.129 -0.327 21.5 V 0.70 0.77 i 691 0.54 Yes Yes
1999CQ2 O C 1999-02-09.36662 1.000E-05 10:14:08.730 1.500E-01 0.600 F 0.026 0.461 +04° 22' 01.60" 1.000E-01 0.600 F 0.084 -0.580 20.6 V 0.70 0.54 i 691 1.45 Yes Yes
1999CQ2 O C 1999-02-10.36945 1.000E-05 10:18:43.090 1.500E-01 0.600 F -0.418 0.658 +02° 09' 34.70" 1.000E-01 0.600 F -0.473 -0.760 19.8 V 0.70 -0.67 i 691 1.84 Yes Yes
1999CQ2 O C 1999-02-10.37330 1.000E-05 10:18:43.560 1.500E-01 0.600 F -0.418 0.738 +02° 09' 07.50" 1.000E-01 0.600 F -0.473 -2.100 20.1 V 0.70 -0.37 i 691 3.42 No Yes
1999CQ2 O C 1999-02-10.37706 1.000E-05 10:18:43.930 1.500E-01 0.600 F -0.418 -0.531 +02° 08' 45.70" 1.000E-01 0.600 F -0.473 1.332 20.2 V 0.70 -0.27 i 691 2.63 Yes Yes
1999CQ2 O C 1999-02-11.36462 1.000E-05 10:22:01.870 1.500E-01 0.600 F -0.447 2.375 +00° 33' 07.80" 1.000E-01 0.600 F -0.416 -0.540 21.8 V 0.70 0.99 i 691 3.83 No Yes
1999CQ2 O C 1999-02-11.36891 1.000E-05 10:22:02.120 1.500E-01 0.600 F -0.447 1.259 +00° 32' 45.80" 1.000E-01 0.600 F -0.416 -0.964 21.6 V 0.70 0.79 i 691 2.83 Yes Yes
1999CQ2 O C 1999-02-11.37291 1.000E-05 10:22:02.320 1.500E-01 0.600 F -0.447 -0.289 +00° 32' 26.70" 1.000E-01 0.600 F -0.416 0.032 21.5 V 0.70 0.69 i 691 0.52 Yes Yes
Oze O C 1999-02-12.11287 1.000E-05 03:24:55.120 1.500E-01 0.600 F 0.063 0.761 +18° 20' 48.00" 1.000E-01 0.600 F 0.113 -0.265 18.2 V 0.70 0.23 a 691 1.35 Yes Yes
Oze O C 1999-02-12.13496 1.000E-05 03:24:58.390 1.500E-01 0.600 F 0.063 0.625 +18° 20' 56.50" 1.000E-01 0.600 F 0.113 -0.313 18.3 V 0.70 0.33 a 691 1.17 Yes Yes
Oze O C 1999-02-12.15705 1.000E-05 03:25:01.690 1.500E-01 0.600 F 0.063 0.872 +18° 21' 04.90" 1.000E-01 0.600 F 0.113 -0.428 18.3 V 0.70 0.33 a 691 1.62 Yes Yes
2000NF5 O C 1999-02-12.17808 1.000E-05 08:08:27.960 1.500E-01 0.600 F 0.284 0.212 +19° 20' 17.40" 1.000E-01 0.600 F 0.095 -0.353 23.0 V 0.70 2.21 a 691 0.69 Yes No
2000NF5 O C 1999-02-12.20003 1.000E-05 08:08:26.650 1.500E-01 0.600 F 0.284 0.335 +19° 20' 20.90" 1.000E-01 0.600 F 0.095 -0.689 21.9 V 0.70 1.11 a 691 1.28 Yes Yes
2000NF5 O C 1999-02-12.22206 1.000E-05 08:08:25.310 1.500E-01 0.600 F 0.284 0.118 +19° 20' 24.70" 1.000E-01 0.600 F 0.095 -0.716 22.0 V 0.70 1.21 a 691 1.21 Yes Yes
1999CQ2 O C 1999-02-13.34326 1.000E-05 10:26:27.620 1.500E-01 0.600 F -0.274 -0.227 -01° 36' 53.70" 1.000E-01 0.600 F -0.463 0.286 20.5 V 0.70 -0.86 i 691 0.72 Yes Yes
1999CQ2 O C 1999-02-13.35126 1.000E-05 10:26:27.830 1.500E-01 0.600 F -0.274 -0.312 -01° 37' 18.50" 1.000E-01 0.600 F -0.463 0.059 20.6 V 0.70 -0.76 i 691 0.60 Yes Yes
1999CQ2 O C 1999-02-13.35673 1.000E-05 10:26:27.970 1.500E-01 0.600 F -0.274 -0.423 -01° 37' 35.30" 1.000E-01 0.600 F -0.463 0.027 20.6 V 0.70 -0.76 i 691 0.79 Yes Yes
Oze O C 1999-02-14.09768 1.000E-05 03:29:52.870 1.500E-01 0.600 F -0.040 -0.929 +18° 33' 32.10" 1.000E-01 0.600 F 0.299 0.329 17.6 V 0.70 -0.43 i 691 1.65 Yes Yes
Oze O C 1999-02-14.10444 1.000E-05 03:29:53.870 1.500E-01 0.600 F -0.040 -0.851 +18° 33' 34.70" 1.000E-01 0.600 F 0.299 0.396 17.5 V 0.70 -0.53 i 691 1.57 Yes Yes
Oze O C 1999-02-14.11026 1.000E-05 03:29:54.700 1.500E-01 0.600 F -0.040 -1.225 +18° 33' 36.70" 1.000E-01 0.600 F 0.299 0.218 17.6 V 0.70 -0.43 i 691 2.08 Yes Yes
1989ML O C 1999-02-14.53397 1.000E-05 13:19:32.930 1.500E-01 0.600 F 0.246 -0.597 +02° 21' 58.40" 1.000E-01 0.600 F -0.450 -0.300 19.8 V 0.70 -0.22 i 691 1.11 Yes Yes
1989ML O C 1999-02-14.53963 1.000E-05 13:19:33.300 1.500E-01 0.600 F 0.246 -0.397 +02° 22' 00.20" 1.000E-01 0.600 F -0.450 -0.316 19.8 V 0.70 -0.22 i 691 0.85 Yes Yes
1989ML O C 1999-02-14.54537 1.000E-05 13:19:33.660 1.500E-01 0.600 F 0.246 -0.430 +02° 22' 02.00" 1.000E-01 0.600 F -0.450 -0.358 19.6 V 0.70 -0.42 i 691 0.93 Yes Yes
1999DJ3 O C 1999-02-18.30539 1.000E-05 10:06:50.290 1.500E-01 0.600 F 0.101 -1.223 +12° 04' 00.00" 1.000E-01 0.600 F 0.002 -0.031 19.4 V 0.70 0.52 i 691 2.10 Yes Yes
1999DJ3 O C 1999-02-18.32704 1.000E-05 10:06:44.390 1.500E-01 0.600 F 0.101 -0.410 +12° 02' 29.60" 1.000E-01 0.600 F 0.002 0.188 19.6 V 0.70 0.72 i 691 0.78 Yes Yes
1999DJ3 O C 1999-02-18.34944 1.000E-05 10:06:38.190 1.500E-01 0.600 F 0.101 -0.954 +12° 00' 55.70" 1.000E-01 0.600 F 0.002 0.210 19.4 V 0.70 0.53 i 691 1.68 Yes Yes
1999DJ3 O C 1999-02-19.22111 1.000E-05 10:02:46.760 1.500E-01 0.671 F 0.126 0.182 +10° 59' 13.10" 1.000E-01 0.671 F 0.250 0.151 19.3 V 0.70 0.36 i 691 0.36 Yes Yes
1999DJ3 O C 1999-02-19.22844 1.000E-05 10:02:44.710 1.500E-01 0.671 F 0.126 -0.019 +10° 58' 41.60" 1.000E-01 0.671 F 0.250 0.074 19.2 V 0.70 0.26 i 691 0.12 Yes Yes
1999DJ3 O C 1999-02-19.23606 1.000E-05 10:02:42.580 1.500E-01 0.671 F 0.126 -0.179 +10° 58' 08.60" 1.000E-01 0.671 F 0.250 -0.244 19.2 V 0.70 0.26 i 691 0.46 Yes Yes
1999DJ3 O C 1999-02-19.39514 1.000E-05 10:01:58.160 1.500E-01 0.671 F 0.164 0.290 +10° 46' 42.70" 1.000E-01 0.671 F 0.361 0.028 19.2 V 0.70 0.24 i 691 0.45 Yes Yes
1999DJ3 O C 1999-02-19.40317 1.000E-05 10:01:55.870 1.500E-01 0.671 F 0.164 -0.463 +10° 46' 07.80" 1.000E-01 0.671 F 0.361 -0.031 19.0 V 0.70 0.04 i 691 0.71 Yes Yes
1997SE5 O C 1999-02-20.17343 1.000E-05 08:14:34.800 1.500E-01 0.600 F 0.005 -0.397 +18° 42' 27.60" 1.000E-01 0.600 F -0.245 -0.711 21.3 V 0.70 0.13 i 691 1.36 Yes Yes
1997SE5 O C 1999-02-20.19576 1.000E-05 08:14:33.980 1.500E-01 0.600 F 0.005 -0.126 +18° 42' 31.00" 1.000E-01 0.600 F -0.245 0.120 21.4 V 0.70 0.23 i 691 0.29 Yes Yes
1997SE5 O C 1999-02-20.21802 1.000E-05 08:14:33.130 1.500E-01 0.600 F 0.005 -0.314 +18° 42' 33.60" 1.000E-01 0.600 F -0.245 0.173 20.9 V 0.70 -0.27 i 691 0.60 Yes Yes
1999DJ3 O C 1999-02-20.32191 1.000E-05 09:57:47.020 1.500E-01 0.600 F 0.209 0.313 +09° 39' 04.40" 1.000E-01 0.600 F 0.355 -0.161 19.1 V 0.70 0.06 i 691 0.60 Yes Yes
1999DJ3 O C 1999-02-20.32599 1.000E-05 09:57:45.850 1.500E-01 0.600 F 0.209 0.149 +09° 38' 46.40" 1.000E-01 0.600 F 0.355 -0.061 19.3 V 0.70 0.26 i 691 0.28 Yes Yes
1999DJ3 O C 1999-02-20.32997 1.000E-05 09:57:44.690 1.500E-01 0.600 F 0.209 -0.287 +09° 38' 28.30" 1.000E-01 0.600 F 0.355 -0.501 19.2 V 0.70 0.16 i 691 1.00 Yes Yes
1999DJ3 O C 1999-02-24.25302 1.000E-05 09:39:29.620 1.500E-01 0.600 F 0.410 0.599 +04° 35' 56.00" 1.000E-01 0.600 F 0.066 0.140 19.7 V 0.70 0.42 i 691 1.09 Yes Yes
1999DJ3 O C 1999-02-24.25746 1.000E-05 09:39:28.310 1.500E-01 0.600 F 0.410 0.523 +04° 35' 35.00" 1.000E-01 0.600 F 0.066 0.380 19.6 V 0.70 0.32 i 691 1.16 Yes Yes
1999DJ3 O C 1999-02-24.26198 1.000E-05 09:39:26.970 1.500E-01 0.600 F 0.410 0.354 +04° 35' 12.80" 1.000E-01 0.600 F 0.066 -0.195 19.5 V 0.70 0.22 i 691 0.70 Yes Yes
1998QK56 O C 1999-03-12.49871 1.000E-05 15:05:31.880 1.500E-01 0.600 F -0.346 -1.112 -06° 56' 44.00" 1.000E-01 0.600 F 0.265 0.505 18.8 V 0.70 0.08 i 691 2.04 Yes Yes
1998QK56 O C 1999-03-12.51093 1.000E-05 15:05:31.440 1.500E-01 0.600 F -0.346 -0.792 -06° 56' 25.90" 1.000E-01 0.600 F 0.265 0.394 18.8 V 0.70 0.08 i 691 1.48 Yes Yes
1998QK56 O C 1999-03-12.52259 1.000E-05 15:05:30.990 1.500E-01 0.600 F -0.346 -0.948 -06° 56' 08.40" 1.000E-01 0.600 F 0.265 0.508 18.4 V 0.70 -0.32 i 691 1.79 Yes Yes
1999EO3 O C 1999-03-13.14056 1.000E-05 08:14:42.630 1.500E-01 0.849 F 0.005 0.623 +18° 37' 36.50" 1.000E-01 0.849 F -0.245 0.384 18.9 V 0.70 -0.06 i 691 0.88 Yes Yes
1999EO3 O C 1999-03-13.16275 1.000E-05 08:14:48.710 1.500E-01 0.849 F 0.005 0.580 +18° 38' 49.70" 1.000E-01 0.849 F -0.245 0.061 18.9 V 0.70 -0.06 i 691 0.70 Yes Yes
1999EO3 O C 1999-03-13.18482 1.000E-05 08:14:54.770 1.500E-01 0.849 F 0.005 0.799 +18° 40' 02.30" 1.000E-01 0.849 F -0.245 -0.246 18.9 V 0.70 -0.06 i 691 1.00 Yes Yes
1999EO3 O C 1999-03-13.20203 1.000E-05 08:14:59.470 1.500E-01 0.849 F 0.005 0.625 +18° 40' 58.70" 1.000E-01 0.849 F -0.245 -0.549 18.9 V 0.70 -0.06 i 691 0.99 Yes Yes
1999EO3 O C 1999-03-13.20884 1.000E-05 08:15:01.340 1.500E-01 0.849 F 0.005 0.700 +18° 41' 22.20" 1.000E-01 0.849 F -0.245 0.551 18.9 V 0.70 -0.06 i 691 1.06 Yes Yes
1999EO3 O C 1999-03-13.21484 1.000E-05 08:15:02.940 1.500E-01 0.849 F 0.005 0.087 +18° 41' 41.60" 1.000E-01 0.849 F -0.245 0.232 18.9 V 0.70 -0.06 i 691 0.29 Yes Yes
1999EO3 O C 1999-03-13.33816 1.000E-05 08:15:36.880 1.500E-01 0.849 F 0.005 0.243 +18° 48' 23.50" 1.000E-01 0.849 F -0.245 0.159 18.9 V 0.70 -0.07 i 691 0.35 Yes Yes
1999EO3 O C 1999-03-13.34398 1.000E-05 08:15:38.500 1.500E-01 0.849 F 0.005 0.335 +18° 48' 42.10" 1.000E-01 0.849 F -0.245 -0.070 18.9 V 0.70 -0.07 i 691 0.41 Yes Yes
1999ED5 O C 1999-03-13.44488 1.000E-05 13:43:12.520 1.500E-01 0.600 F 0.295 -0.112 -08° 44' 10.10" 1.000E-01 0.600 F 0.908 -0.448 19.8 V 0.70 -0.28 i 691 0.78 Yes Yes
1999ED5 O C 1999-03-13.46612 1.000E-05 13:43:11.970 1.500E-01 0.600 F 0.295 -0.321 -08° 44' 46.20" 1.000E-01 0.600 F 0.908 -0.542 19.8 V 0.70 -0.28 i 691 1.07 Yes Yes
1999ED5 O C 1999-03-13.48758 1.000E-05 13:43:11.420 1.500E-01 0.600 F 0.295 -0.518 -08° 45' 22.50" 1.000E-01 0.600 F 0.908 -0.473 19.8 V 0.70 -0.28 i 691 1.19 Yes Yes
1999EO3 O C 1999-03-14.13031 1.000E-05 08:19:20.230 1.500E-01 0.600 F -0.059 -0.130 +19° 30' 37.40" 1.000E-01 0.600 F -0.400 -0.425 18.9 V 0.70 -0.11 i 691 0.75 Yes Yes
1999EO3 O C 1999-03-14.13489 1.000E-05 08:19:21.460 1.500E-01 0.600 F -0.059 -0.184 +19° 30' 51.70" 1.000E-01 0.600 F -0.400 -0.482 18.9 V 0.70 -0.11 i 691 0.87 Yes Yes
1999EO3 O C 1999-03-14.13917 1.000E-05 08:19:22.590 1.500E-01 0.600 F -0.059 -0.504 +19° 31' 05.00" 1.000E-01 0.600 F -0.400 -0.591 18.9 V 0.70 -0.11 i 691 1.32 Yes Yes
1999DJ3 O C 1999-03-14.16389 1.000E-05 08:21:47.500 1.500E-01 0.600 F -0.029 0.432 -17° 58' 29.70" 1.000E-01 0.600 F -0.212 0.152 20.3 V 0.70 0.04 i 691 0.92 Yes Yes
1999DJ3 O C 1999-03-14.16797 1.000E-05 08:21:46.560 1.500E-01 0.600 F -0.029 -0.061 -17° 58' 45.20" 1.000E-01 0.600 F -0.212 -0.263 20.4 V 0.70 0.14 i 691 0.52 Yes Yes
1999DJ3 O C 1999-03-14.17289 1.000E-05 08:21:45.460 1.500E-01 0.600 F -0.029 -0.177 -17° 59' 04.50" 1.000E-01 0.600 F -0.212 -1.380 20.4 V 0.70 0.14 i 691 2.64 Yes Yes
1999EO3 O C 1999-03-15.27766 1.000E-05 08:24:34.310 1.500E-01 0.600 F -0.044 -1.067 +20° 28' 19.30" 1.000E-01 0.600 F -0.395 -0.668 19.3 V 0.70 0.22 i 691 2.15 Yes Yes
1999EO3 O C 1999-03-15.28591 1.000E-05 08:24:36.570 1.500E-01 0.600 F -0.044 -0.017 +20° 28' 43.70" 1.000E-01 0.600 F -0.395 -0.104 19.0 V 0.70 -0.08 i 691 0.18 Yes Yes
1999ED5 O C 1999-03-15.46595 1.000E-05 13:42:25.370 1.500E-01 0.600 F 0.162 -0.297 -09° 43' 31.30" 1.000E-01 0.600 F 0.847 0.157 i 691 0.57 Yes No
1999ED5 O C 1999-03-15.48460 1.000E-05 13:42:24.750 1.500E-01 0.600 F 0.162 -0.238 -09° 44' 05.40" 1.000E-01 0.600 F 0.847 0.024 i 691 0.40 Yes No
1999ED5 O C 1999-03-16.37463 1.000E-05 13:41:59.250 1.500E-01 0.600 F 0.109 0.381 -10° 11' 41.10" 1.000E-01 0.600 F 0.700 0.008 20.2 V 0.70 0.34 i 691 0.64 Yes Yes
1999ED5 O C 1999-03-16.38029 1.000E-05 13:41:59.020 1.500E-01 0.600 F 0.109 0.176 -10° 11' 51.40" 1.000E-01 0.600 F 0.700 0.423 20.0 V 0.70 0.14 i 691 0.78 Yes Yes
1999ED5 O C 1999-03-16.38631 1.000E-05 13:41:58.810 1.500E-01 0.600 F 0.109 0.475 -10° 12' 03.20" 1.000E-01 0.600 F 0.700 0.018 20.1 V 0.70 0.24 i 691 0.80 Yes Yes
1999FQ5 O C 1999-03-18.17852 1.000E-05 10:57:39.560 1.500E-01 0.600 F 0.254 -0.320 +04° 52' 46.30" 1.000E-01 0.600 F -0.194 0.222 18.9 V 0.70 0.14 i 691 0.65 Yes Yes
1999FQ5 O C 1999-03-18.19967 1.000E-05 10:57:38.140 1.500E-01 0.600 F 0.254 0.291 +04° 53' 29.20" 1.000E-01 0.600 F -0.194 -0.034 19.0 V 0.70 0.24 i 691 0.49 Yes Yes
1999FQ5 O C 1999-03-18.22110 1.000E-05 10:57:36.820 1.500E-01 0.600 F 0.254 2.765 +04° 54' 11.50" 1.000E-01 0.600 F -0.194 -1.438 18.2 V 0.70 -0.57 i 691 5.17 No Yes
1999FQ5 O C 1999-03-19.15805 1.000E-05 10:56:36.230 1.500E-01 0.600 F 0.254 0.066 +05° 25' 51.40" 1.000E-01 0.600 F -0.194 -0.076 18.9 V 0.70 0.09 i 691 0.17 Yes Yes
1999FQ5 O C 1999-03-19.17920 1.000E-05 10:56:34.820 1.500E-01 0.600 F 0.254 0.271 +05° 26' 34.00" 1.000E-01 0.600 F -0.194 -0.185 19.0 V 0.70 0.19 i 691 0.55 Yes Yes
1999FQ5 O C 1999-03-19.20409 1.000E-05 10:56:33.130 1.500E-01 0.600 F 0.254 0.171 +05° 27' 24.20" 1.000E-01 0.600 F -0.194 -0.215 19.0 V 0.70 0.19 i 691 0.46 Yes Yes
1998HL3 O C 1999-03-20.29600 1.000E-05 09:42:48.980 1.500E-01 0.600 F 0.256 1.142 +13° 56' 31.90" 1.000E-01 0.600 F 0.351 -2.179 22.8 V 0.70 1.77 a 691 4.08 No Yes
1998HL3 O C 1999-03-20.31806 1.000E-05 09:42:47.190 1.500E-01 0.600 F 0.256 0.951 +13° 56' 45.70" 1.000E-01 0.600 F 0.351 -0.523 21.8 V 0.70 0.77 a 691 1.82 Yes Yes
1998HL3 O C 1999-03-20.34055 1.000E-05 09:42:45.310 1.500E-01 0.600 F 0.256 -0.215 +13° 56' 57.40" 1.000E-01 0.600 F 0.351 -1.142 22.3 V 0.70 1.27 a 691 1.94 Yes Yes
1999FQ5 O C 1999-03-20.43539 1.000E-05 10:55:14.770 1.500E-01 0.600 F 0.281 0.007 +06° 08' 25.70" 1.000E-01 0.600 F -0.252 -0.310 19.6 V 0.70 0.74 i 691 0.52 Yes Yes
1999FQ5 O C 1999-03-20.44056 1.000E-05 10:55:14.430 1.500E-01 0.600 F 0.281 -0.126 +06° 08' 36.10" 1.000E-01 0.600 F -0.252 -0.135 19.6 V 0.70 0.74 i 691 0.31 Yes Yes
1999FQ5 O C 1999-03-20.44863 1.000E-05 10:55:13.910 1.500E-01 0.600 F 0.281 -0.194 +06° 08' 52.20" 1.000E-01 0.600 F -0.252 0.006 19.6 V 0.70 0.74 i 691 0.33 Yes Yes
1999FQ5 O C 1999-03-22.34306 1.000E-05 10:53:20.190 1.500E-01 0.600 F 0.302 0.016 +07° 10' 40.10" 1.000E-01 0.600 F -0.101 -0.473 19.1 V 0.70 0.15 i 691 0.79 Yes Yes
1999FQ5 O C 1999-03-22.34879 1.000E-05 10:53:19.840 1.500E-01 0.600 F 0.302 0.107 +07° 10' 51.20" 1.000E-01 0.600 F -0.101 -0.408 19.1 V 0.70 0.15 i 691 0.70 Yes Yes
1999ED5 O C 1999-03-22.35541 1.000E-05 13:37:24.220 1.500E-01 0.600 F 0.203 0.090 -13° 43' 14.40" 1.000E-01 0.600 F 0.028 -0.381 19.3 V 0.70 -0.10 i 691 0.66 Yes Yes
1999ED5 O C 1999-03-22.35933 1.000E-05 13:37:23.950 1.500E-01 0.600 F 0.203 0.137 -13° 43' 23.90" 1.000E-01 0.600 F 0.028 -0.551 19.4 V 0.70 0.00 i 691 0.96 Yes Yes
1999ED5 O C 1999-03-22.36341 1.000E-05 13:37:23.670 1.500E-01 0.600 F 0.203 0.205 -13° 43' 33.40" 1.000E-01 0.600 F 0.028 -0.340 19.4 V 0.70 0.00 i 691 0.67 Yes Yes
1999FJ21 O C 1999-03-22.44864 1.000E-05 15:02:33.150 1.500E-01 0.600 F -0.321 -0.526 -05° 19' 07.60" 1.000E-01 0.600 F 0.027 0.346 19.9 V 0.70 0.04 i 691 1.08 Yes Yes
2004JN13 O C 1999-03-22.46403 1.000E-05 15:24:46.820 1.500E-01 0.600 F 0.692 -0.189 -05° 08' 55.40" 1.000E-01 0.600 F 0.218 -0.158 21.3 V 0.70 0.21 i 691 0.41 Yes Yes
1999FJ21 O C 1999-03-22.46958 1.000E-05 15:02:29.090 1.500E-01 0.600 F -0.105 -1.064 -05° 19' 56.30" 1.000E-01 0.600 F 0.069 0.096 19.9 V 0.70 0.04 i 691 1.82 Yes Yes
2004JN13 O C 1999-03-22.48502 1.000E-05 15:24:46.390 1.500E-01 0.600 F 0.692 -0.558 -05° 08' 50.30" 1.000E-01 0.600 F 0.218 0.162 21.2 V 0.70 0.11 i 691 0.97 Yes Yes
1999FJ21 O C 1999-03-22.49102 1.000E-05 15:02:24.980 1.500E-01 0.600 F -0.105 -0.725 -05° 20' 45.90" 1.000E-01 0.600 F 0.069 0.115 20.0 V 0.70 0.14 i 691 1.25 Yes Yes
2004JN13 O C 1999-03-22.50650 1.000E-05 15:24:45.970 1.500E-01 0.600 F 0.692 -0.636 -05° 08' 45.70" 1.000E-01 0.600 F 0.218 -0.135 21.0 V 0.70 -0.09 i 691 1.09 Yes Yes
1999EO3 O C 1999-03-23.29367 1.000E-05 08:58:12.620 1.500E-01 0.600 F -0.102 1.278 +25° 32' 17.10" 1.000E-01 0.600 F -0.605 1.722 20.2 V 0.70 0.64 i 691 3.54 No Yes
1999EO3 O C 1999-03-23.29786 1.000E-05 08:58:13.460 1.500E-01 0.600 F -0.102 -0.213 +25° 32' 22.20" 1.000E-01 0.600 F -0.605 -0.206 19.4 V 0.70 -0.16 i 691 0.50 Yes Yes
1999EO3 O C 1999-03-23.30205 1.000E-05 08:58:14.410 1.500E-01 0.600 F -0.102 -0.221 +25° 32' 29.50" 1.000E-01 0.600 F -0.605 0.072 19.2 V 0.70 -0.36 i 691 0.39 Yes Yes
1999FJ21 O C 1999-03-23.35735 1.000E-05 14:59:44.400 1.500E-01 0.600 F -0.105 0.429 -05° 54' 19.70" 1.000E-01 0.600 F 0.069 0.123 20.0 V 0.70 0.18 i 691 0.76 Yes Yes
1999FJ21 O C 1999-03-23.36103 1.000E-05 14:59:43.540 1.500E-01 0.600 F -0.105 -1.536 -05° 54' 28.40" 1.000E-01 0.600 F 0.069 0.025 19.5 V 0.70 -0.32 i 691 2.62 Yes Yes
1999FP59 O C 1999-03-23.44311 1.000E-05 13:26:41.860 1.500E-01 0.600 F 0.167 0.256 -08° 36' 31.10" 1.000E-01 0.600 F -0.150 0.635 20.5 V 0.70 0.44 i 691 1.14 Yes Yes
1999FP59 O C 1999-03-23.46669 1.000E-05 13:26:40.340 1.500E-01 0.600 F 0.167 0.309 -08° 36' 24.10" 1.000E-01 0.600 F -0.150 0.641 21.0 V 0.70 0.95 i 691 1.19 Yes Yes
1999FP59 O C 1999-03-23.48786 1.000E-05 13:26:38.940 1.500E-01 0.600 F 0.167 -0.239 -08° 36' 16.60" 1.000E-01 0.600 F -0.150 1.838 20.7 V 0.70 0.65 i 691 3.09 Yes Yes
1999FQ5 O C 1999-03-24.31787 1.000E-05 10:51:28.570 1.500E-01 0.600 F -0.164 -0.796 +08° 13' 09.60" 1.000E-01 0.600 F -0.030 -0.589 16.9 V 0.70 -2.13 i 691 1.66 Yes No
1999FQ5 O C 1999-03-24.32162 1.000E-05 10:51:28.350 1.500E-01 0.600 F -0.164 -0.810 +08° 13' 16.60" 1.000E-01 0.600 F -0.030 -0.575 18.8 V 0.70 -0.23 i 691 1.66 Yes Yes
1999FQ5 O C 1999-03-24.32535 1.000E-05 10:51:28.140 1.500E-01 0.600 F -0.164 -0.696 +08° 13' 23.80" 1.000E-01 0.600 F -0.030 -0.324 18.7 V 0.70 -0.33 i 691 1.29 Yes Yes
1999FP59 O C 1999-03-24.35912 1.000E-05 13:25:44.690 1.500E-01 0.671 F 0.167 -0.199 -08° 31' 58.90" 1.000E-01 0.671 F -0.150 -0.010 20.3 V 0.70 0.28 i 691 0.30 Yes Yes
1999FP59 O C 1999-03-24.36284 1.000E-05 13:25:44.440 1.500E-01 0.671 F 0.167 -0.210 -08° 31' 57.40" 1.000E-01 0.671 F -0.150 0.362 20.3 V 0.70 0.28 i 691 0.63 Yes Yes
1999ED5 O C 1999-03-24.36795 1.000E-05 13:35:07.490 1.500E-01 0.600 F -0.195 -0.258 -15° 06' 09.90" 1.000E-01 0.600 F 0.234 0.270 19.2 V 0.70 -0.04 i 691 0.63 Yes Yes
1999ED5 O C 1999-03-24.37175 1.000E-05 13:35:07.120 1.500E-01 0.600 F -0.195 -1.081 -15° 06' 20.00" 1.000E-01 0.600 F 0.234 -0.055 18.9 V 0.70 -0.34 i 691 1.83 Yes Yes
1999ED5 O C 1999-03-24.37559 1.000E-05 13:35:06.870 1.500E-01 0.600 F -0.195 -0.117 -15° 06' 29.60" 1.000E-01 0.600 F 0.234 0.221 19.3 V 0.70 0.06 i 691 0.42 Yes Yes
1999FJ21 O C 1999-03-24.38169 1.000E-05 14:56:26.520 1.500E-01 0.600 F 0.347 -0.100 -06° 34' 14.40" 1.000E-01 0.600 F 0.094 0.110 20.1 V 0.70 0.32 i 691 0.25 Yes Yes
1999FJ21 O C 1999-03-24.38539 1.000E-05 14:56:25.650 1.500E-01 0.600 F 0.347 -1.751 -06° 34' 25.00" 1.000E-01 0.600 F 0.094 -1.802 19.8 V 0.70 0.02 i 691 4.09 No Yes
1999FJ21 O C 1999-03-24.38909 1.000E-05 14:56:25.010 1.500E-01 0.600 F 0.347 0.029 -06° 34' 31.60" 1.000E-01 0.600 F 0.094 0.285 19.8 V 0.70 0.02 i 691 0.49 Yes Yes
1999FP59 O C 1999-03-24.39442 1.000E-05 13:25:42.460 1.500E-01 0.671 F 0.167 1.816 -08° 31' 48.10" 1.000E-01 0.671 F -0.150 0.057 20.7 V 0.70 0.69 i 691 2.72 Yes Yes
1999FP59 O C 1999-03-24.41517 1.000E-05 13:25:40.980 1.500E-01 0.671 F 0.167 0.482 -08° 31' 41.20" 1.000E-01 0.671 F -0.150 0.615 20.4 V 0.70 0.39 i 691 1.16 Yes Yes
1999FP59 O C 1999-03-24.43621 1.000E-05 13:25:39.560 1.500E-01 0.671 F 0.167 0.297 -08° 31' 34.40" 1.000E-01 0.671 F -0.150 0.959 20.2 V 0.70 0.19 i 691 1.50 Yes Yes
1997AP10 O C 1999-04-06.14513 1.000E-05 07:45:40.830 1.500E-01 0.600 F -0.086 0.099 +12° 59' 57.20" 1.000E-01 0.600 F -0.279 -0.277 19.0 V 0.70 -0.08 i 691 0.49 Yes Yes
1997AP10 O C 1999-04-06.15042 1.000E-05 07:45:40.640 1.500E-01 0.600 F -0.086 -0.174 +12° 59' 57.60" 1.000E-01 0.600 F -0.279 -0.588 19.1 V 0.70 0.02 i 691 1.02 Yes Yes
1999CU3 O C 1999-04-09.14241 1.000E-05 08:21:18.890 1.500E-01 0.600 F 0.709 -0.476 +19° 29' 47.80" 1.000E-01 0.600 F -0.594 0.238 19.3 V 0.70 -0.23 i 691 0.89 Yes Yes
1999CU3 O C 1999-04-09.16555 1.000E-05 08:21:18.740 1.500E-01 0.600 F 0.709 -0.721 +19° 29' 37.80" 1.000E-01 0.600 F -0.594 0.154 19.4 V 0.70 -0.13 i 691 1.23 Yes Yes
1999CU3 O C 1999-04-09.19074 1.000E-05 08:21:18.600 1.500E-01 0.600 F 0.709 -0.741 +19° 29' 27.10" 1.000E-01 0.600 F -0.594 0.304 19.5 V 0.70 -0.03 i 691 1.34 Yes Yes
1999FQ5 O C 1999-04-09.23037 1.000E-05 10:41:57.350 1.500E-01 0.600 F -0.262 0.338 +15° 06' 32.00" 1.000E-01 0.600 F -0.057 -0.368 19.6 V 0.70 -0.07 i 691 0.83 Yes Yes
1999FQ5 O C 1999-04-09.23431 1.000E-05 10:41:57.270 1.500E-01 0.600 F -0.262 0.305 +15° 06' 36.60" 1.000E-01 0.600 F -0.057 -0.609 19.7 V 0.70 0.03 i 691 1.14 Yes Yes
1999FQ5 O C 1999-04-09.23844 1.000E-05 10:41:57.180 1.500E-01 0.600 F -0.262 0.180 +15° 06' 41.60" 1.000E-01 0.600 F -0.057 -0.681 19.6 V 0.70 -0.07 i 691 1.17 Yes Yes
1999FP59 O C 1999-04-09.31456 1.000E-05 13:05:22.920 1.500E-01 0.600 F -0.551 -0.220 -06° 51' 21.50" 1.000E-01 0.600 F 0.111 0.094 19.6 V 0.70 0.35 i 691 0.40 Yes Yes
1999FP59 O C 1999-04-09.32212 1.000E-05 13:05:22.250 1.500E-01 0.600 F -0.551 -0.178 -06° 51' 18.10" 1.000E-01 0.600 F 0.111 0.226 19.6 V 0.70 0.35 i 691 0.48 Yes Yes
1999FP59 O C 1999-04-09.32995 1.000E-05 13:05:21.550 1.500E-01 0.600 F -0.551 -0.227 -06° 51' 14.90" 1.000E-01 0.600 F 0.111 0.038 19.7 V 0.70 0.45 i 691 0.39 Yes Yes
2007FS35 O C 1999-04-12.25932 1.000E-05 12:03:17.660 1.500E-01 0.600 F -0.364 0.300 -00° 13' 32.50" 1.000E-01 0.600 F -0.284 -0.496 21.0 V 0.70 0.19 i 691 0.99 Yes Yes
1999HP11 O C 1999-04-12.26389 1.000E-05 12:09:53.090 1.500E-01 0.600 F -0.185 -0.266 -00° 18' 42.50" 1.000E-01 0.600 F -1.219 0.797 21.9 V 0.70 1.08 a 691 1.42 Yes Yes
2007FS35 O C 1999-04-12.28092 1.000E-05 12:03:15.860 1.500E-01 0.600 F -0.364 0.380 -00° 13' 21.00" 1.000E-01 0.600 F -0.284 -0.590 21.2 V 0.70 0.39 i 691 1.19 Yes Yes
1999HP11 O C 1999-04-12.28546 1.000E-05 12:09:49.800 1.500E-01 0.600 F -0.185 -0.405 -00° 18' 41.60" 1.000E-01 0.600 F -1.219 0.838 21.7 V 0.70 0.88 a 691 1.58 Yes Yes
2007FS35 O C 1999-04-12.30198 1.000E-05 12:03:14.130 1.500E-01 0.600 F -0.364 0.798 -00° 13' 09.20" 1.000E-01 0.600 F -0.284 -0.091 20.5 V 0.70 -0.31 i 691 1.37 Yes Yes
1999HP11 O C 1999-04-12.30651 1.000E-05 12:09:46.580 1.500E-01 0.600 F -0.342 -0.550 -00° 18' 40.70" 1.000E-01 0.600 F -0.978 0.661 21.4 V 0.70 0.58 a 691 1.46 Yes Yes
2012QC8 O C 1999-04-12.32407 1.000E-05 13:35:37.110 1.500E-01 0.600 F 0.051 0.076 -09° 52' 54.30" 1.000E-01 0.600 F 0.186 -0.223 20.9 V 0.70 -0.25 a 691 0.44 Yes Yes
2012QC8 O C 1999-04-12.34497 1.000E-05 13:35:35.230 1.500E-01 0.600 F 0.051 0.118 -09° 52' 46.20" 1.000E-01 0.600 F 0.186 -0.407 21.5 V 0.70 0.35 a 691 0.79 Yes Yes
2012QC8 O C 1999-04-12.36640 1.000E-05 13:35:33.260 1.500E-01 0.600 F 0.051 -0.483 -09° 52' 37.20" 1.000E-01 0.600 F 0.186 0.084 21.6 V 0.70 0.45 a 691 0.99 Yes Yes
1999HD1 O C 1999-04-16.41241 1.000E-05 14:40:40.310 1.500E-01 0.600 F 0.070 -0.593 -14° 30' 15.60" 1.000E-01 0.600 F -0.009 0.482 20.0 V 0.70 -0.13 i 691 1.30 Yes Yes
1999HD1 O C 1999-04-16.43411 1.000E-05 14:40:37.770 1.500E-01 0.600 F 0.070 -0.803 -14° 29' 25.20" 1.000E-01 0.600 F -0.009 0.290 19.9 V 0.70 -0.23 i 691 1.45 Yes Yes
1999HD1 O C 1999-04-16.45587 1.000E-05 14:40:35.250 1.500E-01 0.600 F 0.070 -0.741 -14° 28' 34.80" 1.000E-01 0.600 F -0.009 -0.150 20.3 V 0.70 0.18 i 691 1.29 Yes Yes
1999HD1 O C 1999-04-17.25768 1.000E-05 14:39:07.190 1.500E-01 0.849 F 0.452 0.991 -13° 57' 06.60" 1.000E-01 0.849 F -0.207 -0.290 20.1 V 0.70 0.04 i 691 1.23 Yes Yes
1999HD1 O C 1999-04-17.26572 1.000E-05 14:39:06.150 1.500E-01 0.849 F 0.452 -0.141 -13° 56' 47.00" 1.000E-01 0.849 F -0.207 0.219 20.2 V 0.70 0.14 i 691 0.31 Yes Yes
1999HD1 O C 1999-04-17.30229 1.000E-05 14:39:01.760 1.500E-01 0.849 F 0.452 -0.027 -13° 55' 19.90" 1.000E-01 0.849 F -0.207 0.299 20.1 V 0.70 0.04 i 691 0.36 Yes Yes
1999HD1 O C 1999-04-17.42533 1.000E-05 14:38:46.850 1.500E-01 0.849 F 0.452 -0.221 -13° 50' 25.10" 1.000E-01 0.849 F -0.207 -0.026 20.1 V 0.70 0.05 i 691 0.27 Yes Yes
1999HD1 O C 1999-04-17.42958 1.000E-05 14:38:46.360 1.500E-01 0.849 F 0.452 0.115 -13° 50' 14.90" 1.000E-01 0.849 F -0.207 -0.084 20.0 V 0.70 -0.05 i 691 0.17 Yes Yes
1999HD1 O C 1999-04-17.43547 1.000E-05 14:38:45.670 1.500E-01 0.849 F 0.452 0.414 -13° 50' 00.30" 1.000E-01 0.849 F -0.207 0.293 i 691 0.60 Yes No
1999HD1 O C 1999-04-17.44133 1.000E-05 14:38:44.920 1.500E-01 0.849 F 0.452 -0.224 -13° 49' 46.20" 1.000E-01 0.849 F -0.207 0.235 20.2 V 0.70 0.16 i 691 0.39 Yes Yes
1999HD1 O C 1999-04-17.44672 1.000E-05 14:38:44.280 1.500E-01 0.849 F 0.452 -0.093 -13° 49' 33.30" 1.000E-01 0.849 F -0.207 0.105 19.9 V 0.70 -0.14 i 691 0.17 Yes Yes
1999HV1 O C 1999-04-18.26206 1.000E-05 13:26:58.090 1.500E-01 0.600 F -0.008 0.203 -09° 32' 16.60" 1.000E-01 0.600 F -0.208 -0.008 20.3 V 0.70 -0.11 i 691 0.35 Yes Yes
1999HV1 O C 1999-04-18.28333 1.000E-05 13:26:56.630 1.500E-01 0.600 F -0.008 0.478 -09° 32' 03.90" 1.000E-01 0.600 F -0.208 0.586 20.7 V 0.70 0.29 i 691 1.27 Yes Yes
1999HV1 O C 1999-04-18.30448 1.000E-05 13:26:55.170 1.500E-01 0.600 F -0.008 0.641 -09° 31' 51.90" 1.000E-01 0.600 F -0.208 0.531 20.5 V 0.70 0.09 i 691 1.41 Yes Yes
1999HP11 O C 1999-04-19.20273 1.000E-05 11:53:01.360 1.500E-01 0.600 F -0.201 -0.294 -00° 17' 56.10" 1.000E-01 0.600 F -0.268 -0.340 20.7 V 0.70 -0.24 i 691 0.76 Yes Yes
1999HP11 O C 1999-04-19.22464 1.000E-05 11:52:58.190 1.500E-01 0.600 F -0.201 0.059 -00° 17' 56.90" 1.000E-01 0.600 F -0.268 -0.474 20.8 V 0.70 -0.14 i 691 0.81 Yes Yes
1999HP11 O C 1999-04-19.24604 1.000E-05 11:52:55.020 1.500E-01 0.600 F 0.075 -0.985 -00° 17' 57.30" 1.000E-01 0.600 F -0.466 -0.022 21.2 V 0.70 0.26 i 691 1.66 Yes Yes
1999HD1 O C 1999-04-19.28758 1.000E-05 14:35:07.740 1.500E-01 0.600 F 1.273 -1.311 -12° 33' 34.70" 1.000E-01 0.600 F -0.036 -1.496 19.9 V 0.70 0.01 i 691 3.27 No Yes
1999HD1 O C 1999-04-19.29135 1.000E-05 14:35:07.320 1.500E-01 0.600 F 1.273 -0.328 -12° 33' 25.50" 1.000E-01 0.600 F -0.036 -1.884 19.4 V 0.70 -0.49 i 691 3.16 No Yes
1999HD1 O C 1999-04-19.29634 1.000E-05 14:35:06.670 1.500E-01 0.600 F 1.273 -0.399 -12° 33' 13.50" 1.000E-01 0.600 F -0.036 -2.580 19.7 V 0.70 -0.19 i 691 4.32 No Yes
Golevka O C 1999-04-19.30503 1.000E-05 14:28:59.910 1.500E-01 0.600 F -0.138 0.400 -14° 54' 57.20" 1.000E-01 0.600 F -0.652 -0.771 17.2 V 0.70 -0.33 a 691 1.45 Yes Yes
Golevka O C 1999-04-19.32765 1.000E-05 14:29:00.750 1.500E-01 0.600 F -0.138 -0.668 -14° 54' 51.20" 1.000E-01 0.600 F -0.652 0.328 17.5 V 0.70 -0.02 a 691 1.24 Yes Yes
Golevka O C 1999-04-19.34990 1.000E-05 14:29:01.650 1.500E-01 0.600 F -0.138 -0.624 -14° 54' 46.30" 1.000E-01 0.600 F -0.652 0.272 17.6 V 0.70 0.08 a 691 1.13 Yes Yes
1999HP11 O C 1999-04-20.25955 1.000E-05 11:50:32.200 1.500E-01 0.600 F 0.075 -0.135 -00° 18' 34.40" 1.000E-01 0.600 F -0.466 0.062 21.0 V 0.70 0.04 i 691 0.25 Yes Yes
1999HP11 O C 1999-04-20.26333 1.000E-05 11:50:31.660 1.500E-01 0.600 F 0.075 -0.075 -00° 18' 35.10" 1.000E-01 0.600 F -0.466 -0.477 21.4 V 0.70 0.44 i 691 0.82 Yes Yes
1999HP11 O C 1999-04-20.26701 1.000E-05 11:50:31.130 1.500E-01 0.600 F 0.075 -0.083 -00° 18' 35.00" 1.000E-01 0.600 F -0.466 -0.220 20.8 V 0.70 -0.16 i 691 0.40 Yes Yes
1999HV1 O C 1999-04-20.30651 1.000E-05 13:24:40.060 1.500E-01 0.600 F 0.113 0.183 -09° 12' 42.70" 1.000E-01 0.600 F -0.100 -0.014 20.6 V 0.70 0.14 i 691 0.31 Yes Yes
1999HV1 O C 1999-04-20.31026 1.000E-05 13:24:39.790 1.500E-01 0.600 F 0.113 0.068 -09° 12' 40.80" 1.000E-01 0.600 F -0.100 -0.283 20.8 V 0.70 0.34 i 691 0.49 Yes Yes
1999HV1 O C 1999-04-20.31509 1.000E-05 13:24:39.460 1.500E-01 0.600 F 0.113 0.182 -09° 12' 38.00" 1.000E-01 0.600 F -0.100 -0.278 20.6 V 0.70 0.14 i 691 0.56 Yes Yes
1999HP11 O C 1999-04-21.25449 1.000E-05 11:48:13.940 1.500E-01 0.600 F 0.069 2.016 -00° 19' 23.10" 1.000E-01 0.600 F -0.645 0.017 20.9 V 0.70 -0.08 i 691 3.32 No Yes
1999HP11 O C 1999-04-21.25821 1.000E-05 11:48:13.290 1.500E-01 0.600 F 0.069 0.192 -00° 19' 23.10" 1.000E-01 0.600 F -0.645 0.220 20.9 V 0.70 -0.08 i 691 0.49 Yes Yes
1999HP11 O C 1999-04-21.26327 1.000E-05 11:48:12.580 1.500E-01 0.600 F 0.069 0.321 -00° 19' 23.10" 1.000E-01 0.600 F -0.645 0.498 21.4 V 0.70 0.42 i 691 1.00 Yes Yes
1999HV1 O C 1999-04-21.27187 1.000E-05 13:23:34.810 1.500E-01 0.600 F 0.113 -0.009 -09° 03' 23.30" 1.000E-01 0.600 F -0.100 0.101 20.3 V 0.70 -0.18 i 691 0.17 Yes Yes

[1-200] [201-400] [401-600] [601-800] [801-1000] [1001-1200] [1201-1400] [1401-1600] [1601-1800] [1801-2000] [2001-2200] [2201-2400] [2401-2600] [2601-2800] [2801-3000] [3001-3200] [3201-3400] [3401-3600] [3601-3800] [3801-4000] [4001-4200] [4201-4400] [4401-4600] [4601-4800] [4801-5000] [5001-5200] [5201-5400] [5401-5600] [5601-5800] [5801-6000] [6001-6200] [6201-6400] [6401-6600] [6601-6800] [6801-7000] [7001-7200] [7201-7400] [7401-7600] [7601-7800] [7801-8000] [8001-8200] [8201-8400] [8401-8600] [8601-8800] [8801-9000] [9001-9200] [9201-9400] [9401-9600] [9601-9800] [9801-10000] [10001-10200] [10201-10400] [10401-10600] [10601-10800] [10801-11000] [11001-11200] [11201-11400] [11401-11600] [11601-11800] [11801-12000] [12001-12200] [12201-12400] [12401-12600] [12601-12800] [12801-13000] [13001-13200] [13201-13400] [13401-13600] [13601-13800] [13801-14000] [14001-14200] [14201-14400] [14401-14600] [14601-14800] [14801-15000] [15001-15200] [15201-15400] [15401-15600] [15601-15800] [15801-16000] [16001-16200] [16201-16400] [16401-16600] [16601-16800] [16801-17000] [17001-17200] [17201-17400] [17401-17600] [17601-17800] [17801-18000] [18001-18200] [18201-18400] [18401-18600] [18601-18800] [18801-19000] [19001-19200] [19201-19400] [19401-19600] [19601-19800] [19801-20000] [20001-20200] [20201-20400] [20401-20600] [20601-20800] [20801-21000] [21001-21200] [21201-21400] [21401-21600] [21601-21800] [21801-22000] [22001-22200] [22201-22400] [22401-22600] [22601-22800] [22801-23000] [23001-23200] [23201-23400] [23401-23600] [23601-23800] [23801-24000] [24001-24200] [24201-24400] [24401-24600] [24601-24800] [24801-25000] [25001-25200] [25201-25400] [25401-25600] [25601-25800] [25801-26000] [26001-26200] [26201-26400] [26401-26600] [26601-26800] [26801-27000] [27001-27200] [27201-27400] [27401-27600] [27601-27800] [27801-28000] [28001-28200] [28201-28400] [28401-28600] [28601-28800] [28801-29000] [29001-29200] [29201-29400] [29401-29600] [29601-29800] [29801-30000] [30001-30200] [30201-30400] [30401-30600] [30601-30800] [30801-31000] [31001-31200] [31201-31400] [31401-31600] [31601-31800] [31801-32000] [32001-32200] [32201-32400] [32401-32600] [32601-32800] [32801-33000] [33001-33200] [33201-33400] [33401-33600] [33601-33800] [33801-34000] [34001-34200] [34201-34400] [34401-34600] [34601-34800] [34801-35000] [35001-35200] [35201-35400] [35401-35600] [35601-35800] [35801-36000] [36001-36200] [36201-36400] [36401-36600] [36601-36800] [36801-37000] [37001-37200] [37201-37400] [37401-37600] [37601-37800] [37801-38000] [38001-38200] [38201-38400] [38401-38600] [38601-38800] [38801-39000] [39001-39200] [39201-39400] [39401-39600] [39601-39800] [39801-40000] [40001-40200] [40201-40400] [40401-40600] [40601-40800] [40801-41000] [41001-41200] [41201-41400] [41401-41600] [41601-41800] [41801-42000] [42001-42200] [42201-42400] [42401-42600] [42601-42800] [42801-43000] [43001-43200] [43201-43400] [43401-43600] [43601-43800] [43801-44000] [44001-44200] [44201-44400] [44401-44600] [44601-44800] [44801-45000] [45001-45200] [45201-45400] [45401-45600] [45601-45800] [45801-46000] [46001-46200] [46201-46400] [46401-46600] [46601-46800] [46801-47000] [47001-47200] [47201-47400] [47401-47600] [47601-47800] [47801-48000] [48001-48200] [48201-48400] [48401-48600] [48601-48800] [48801-49000] [49001-49200] [49201-49400] [49401-49600] [49601-49800] [49801-50000] [50001-50200] [50201-50388]